Time;durP1;ratioP1;P1;durP2;ratioP2;P2;SDS_P1;SDS_P2;PMS_P1;PMS_P2;Temp;Humidity;BMP_temperature;BMP_pressure;BME280_temperature;BME280_humidity;BME280_pressure;Samples;Min_cycle;Max_cycle;Signal;HPM_P1;HPM_P2
2022/08/12 00:44:40;;;;;;;;;;;18.00;73.30;;;;;;4852917;29;20454;-68
2022/08/12 00:47:07;;;;;;;4.18;1.70;;;18.00;73.30;;;;;;4855206;29;19912;-68
2022/08/12 00:49:33;;;;;;;3.75;1.70;;;17.90;73.30;;;;;;4857104;29;20319;-68
2022/08/12 00:52:05;;;;;;;4.93;1.50;;;17.90;73.40;;;;;;4855669;29;20116;-68
2022/08/12 00:54:37;;;;;;;2.50;1.33;;;17.90;73.30;;;;;;4857956;29;20074;-71
2022/08/12 00:57:30;;;;;;;3.65;1.52;;;17.80;73.60;;;;;;4856636;29;20037;-68
2022/08/12 00:59:59;;;;;;;3.50;1.42;;;17.70;73.70;;;;;;4855961;29;20046;-68
2022/08/12 01:02:31;;;;;;;3.13;1.38;;;17.70;74.00;;;;;;4852012;29;20033;-69
2022/08/12 01:13:18;;;;;;;2.90;1.50;;;17.50;74.60;;;;;;4855308;29;20120;-67
2022/08/12 01:15:45;;;;;;;3.97;1.88;;;17.50;74.90;;;;;;4850730;29;20067;-68
2022/08/12 01:18:13;;;;;;;2.60;1.38;;;17.40;74.60;;;;;;4854870;29;20387;-68
2022/08/12 01:20:50;;;;;;;3.80;1.48;;;17.30;75.40;;;;;;4856142;29;20025;-68
2022/08/12 01:23:33;;;;;;;4.00;1.90;;;17.20;75.50;;;;;;4851860;29;20112;-68
2022/08/12 01:26:02;;;;;;;3.28;1.80;;;17.10;75.20;;;;;;4854730;29;20093;-69
2022/08/12 01:28:30;;;;;;;2.55;1.60;;;17.00;75.70;;;;;;4852751;29;20944;-68
2022/08/12 01:30:57;;;;;;;6.55;1.58;;;17.00;76.10;;;;;;4854403;29;20029;-68
2022/08/12 01:33:24;;;;;;;2.83;1.48;;;17.00;75.80;;;;;;4854340;29;20427;-68
2022/08/12 01:35:59;;;;;;;4.63;1.67;;;17.00;76.00;;;;;;4853313;29;20033;-68
2022/08/12 01:38:27;;;;;;;3.15;1.63;;;17.00;76.30;;;;;;4850157;29;20392;-68
2022/08/12 01:40:57;;;;;;;5.47;1.80;;;17.00;76.20;;;;;;4857794;29;20062;-68
2022/08/12 01:43:24;;;;;;;2.65;1.70;;;16.90;76.30;;;;;;4856458;29;20042;-68
2022/08/12 01:46:37;;;;;;;3.53;1.35;;;17.00;76.20;;;;;;4851637;29;20216;-68
2022/08/12 01:49:33;;;;;;;3.47;1.60;;;17.00;76.20;;;;;;4775767;29;20054;-68
2022/08/12 01:52:04;;;;;;;4.55;1.67;;;17.00;76.20;;;;;;4787066;29;20058;-68
2022/08/12 01:54:43;;;;;;;2.85;1.70;;;17.00;76.00;;;;;;4839346;29;20049;-70
2022/08/12 01:57:25;;;;;;;4.78;1.90;;;17.00;76.20;;;;;;4854905;29;20037;-68
2022/08/12 02:00:03;;;;;;;4.10;1.55;;;16.90;76.10;;;;;;4852607;29;20466;-69
2022/08/12 02:02:29;;;;;;;3.97;1.65;;;16.90;76.20;;;;;;4847161;29;20406;-68
2022/08/12 02:11:31;;;;;;;3.53;1.50;;;16.80;76.60;;;;;;4858522;29;20125;-68
2022/08/12 02:14:18;;;;;;;3.42;1.42;;;16.80;76.60;;;;;;4852547;29;20034;-68
2022/08/12 02:17:06;;;;;;;3.25;1.67;;;16.80;76.70;;;;;;4854155;29;20030;-70
2022/08/12 02:19:49;;;;;;;3.28;1.40;;;16.80;76.70;;;;;;4858456;29;20105;-68
2022/08/12 02:22:30;;;;;;;3.92;1.52;;;16.80;76.60;;;;;;4856593;29;20094;-68
2022/08/12 02:25:02;;;;;;;4.15;1.73;;;16.80;76.70;;;;;;4852831;29;20029;-68
2022/08/12 02:27:33;;;;;;;4.32;1.50;;;16.80;76.60;;;;;;4857965;29;20125;-69
2022/08/12 02:29:59;;;;;;;5.25;1.90;;;16.70;76.80;;;;;;4854647;29;20430;-68
2022/08/12 02:32:25;;;;;;;3.78;1.70;;;16.80;76.80;;;;;;4858503;29;20041;-68
2022/08/12 02:34:51;;;;;;;3.10;1.52;;;16.70;76.80;;;;;;4860081;29;20043;-68
2022/08/12 02:37:18;;;;;;;4.57;1.65;;;16.70;76.80;;;;;;4859720;29;20021;-68
2022/08/12 02:39:48;;;;;;;4.95;1.80;;;16.60;76.60;;;;;;4856768;29;20037;-68
2022/08/12 02:42:17;;;;;;;4.13;1.70;;;16.50;76.70;;;;;;4860248;29;20033;-68
2022/08/12 02:44:47;;;;;;;3.55;2.00;;;16.50;77.20;;;;;;4855758;29;20040;-68
2022/08/12 02:47:14;;;;;;;2.65;1.40;;;16.50;77.70;;;;;;4859490;29;20422;-68
2022/08/12 02:49:45;;;;;;;5.80;1.80;;;16.40;77.60;;;;;;4857767;29;20045;-68
2022/08/12 02:52:13;;;;;;;4.10;1.98;;;16.40;78.00;;;;;;4843582;29;20033;-68
2022/08/12 02:54:40;;;;;;;3.65;1.48;;;16.30;78.00;;;;;;4858642;29;20530;-68
2022/08/12 02:57:06;;;;;;;3.50;1.77;;;16.20;78.20;;;;;;4855519;29;20030;-68
2022/08/12 02:59:34;;;;;;;5.38;1.73;;;16.30;78.30;;;;;;4856645;29;20468;-69
2022/08/12 03:02:02;;;;;;;4.05;1.73;;;16.20;78.30;;;;;;4857481;29;20106;-68
2022/08/12 03:04:35;;;;;;;2.35;1.70;;;16.20;78.40;;;;;;4857456;29;20037;-68
2022/08/12 03:07:16;;;;;;;3.75;1.88;;;16.20;78.40;;;;;;4857655;29;20054;-68
2022/08/12 03:09:56;;;;;;;;;;;16.20;78.50;;;;;;4851832;29;20444;-68
2022/08/12 03:12:23;;;;;;;3.05;1.75;;;16.10;78.40;;;;;;4855547;29;20292;-69
2022/08/12 03:14:50;;;;;;;3.63;1.58;;;16.10;78.70;;;;;;4859464;29;20479;-69
2022/08/12 03:17:26;;;;;;;3.72;1.70;;;16.10;78.40;;;;;;4859404;29;20041;-71
2022/08/12 03:19:53;;;;;;;3.65;1.83;;;16.10;78.50;;;;;;4857432;29;20037;-70
2022/08/12 03:22:22;;;;;;;2.60;1.40;;;16.20;78.00;;;;;;4855194;29;20053;-68
2022/08/12 03:24:48;;;;;;;3.22;1.65;;;16.10;77.90;;;;;;4859974;29;20037;-69
2022/08/12 03:27:14;;;;;;;3.65;1.85;;;16.10;78.40;;;;;;4858675;29;20492;-68
2022/08/12 03:29:43;;;;;;;6.93;1.73;;;16.10;78.30;;;;;;4857292;29;20041;-68
2022/08/12 03:32:09;;;;;;;6.03;1.55;;;16.10;78.20;;;;;;4851757;29;20045;-68
2022/08/12 03:34:36;;;;;;;6.32;1.90;;;16.10;78.50;;;;;;4853354;29;20029;-68
2022/08/12 03:37:03;;;;;;;6.45;1.90;;;16.00;78.60;;;;;;4857641;29;20042;-69
2022/08/12 03:42:36;;;;;;;4.68;1.73;;;15.90;78.50;;;;;;4859328;29;20490;-69
2022/08/12 04:01:59;;;;;;;6.07;2.22;;;15.90;78.90;;;;;;4856408;29;20052;-69
2022/08/12 04:04:32;;;;;;;5.20;2.10;;;16.00;78.80;;;;;;4857535;29;20037;-69
2022/08/12 04:06:59;;;;;;;4.50;1.58;;;16.00;78.10;;;;;;4852327;29;20415;-69
2022/08/12 04:09:25;;;;;;;3.28;1.77;;;16.00;78.20;;;;;;4856125;29;20042;-68
2022/08/12 04:14:37;;;;;;;2.70;1.73;;;16.00;78.40;;;;;;4836828;29;20097;-68
2022/08/12 04:17:03;;;;;;;3.00;1.70;;;16.00;78.20;;;;;;4858413;29;20037;-68
2022/08/12 04:19:29;;;;;;;5.32;1.83;;;16.00;78.20;;;;;;4858485;29;20068;-68
2022/08/12 04:21:55;;;;;;;3.90;1.80;;;15.90;78.30;;;;;;4853009;29;20044;-68
2022/08/12 04:24:24;;;;;;;4.28;1.98;;;15.90;78.40;;;;;;4855119;29;20434;-69
2022/08/12 04:26:49;;;;;;;3.60;2.00;;;15.90;78.50;;;;;;4854164;29;20030;-68
2022/08/12 04:29:15;;;;;;;3.45;1.85;;;15.90;79.10;;;;;;4857086;29;20125;-68
2022/08/12 04:31:42;;;;;;;4.10;1.83;;;15.90;79.10;;;;;;4849265;29;20064;-71
2022/08/12 04:34:09;;;;;;;5.70;1.75;;;15.90;79.40;;;;;;4856627;29;20499;-67
2022/08/12 04:36:37;;;;;;;3.03;1.65;;;15.90;78.70;;;;;;4855035;29;20120;-68
2022/08/12 04:39:05;;;;;;;5.32;1.90;;;16.00;79.10;;;;;;4851566;29;20358;-73
2022/08/12 04:41:31;;;;;;;3.83;2.55;;;16.00;78.60;;;;;;4847226;29;20116;-71
2022/08/12 04:43:57;;;;;;;4.47;2.00;;;16.00;78.50;;;;;;4862549;29;20389;-71
2022/08/12 04:46:23;;;;;;;2.58;1.73;;;16.00;78.60;;;;;;4853248;29;20034;-70
2022/08/12 04:48:50;;;;;;;5.57;2.10;;;16.10;78.60;;;;;;4853217;29;20045;-71
2022/08/12 04:51:16;;;;;;;3.25;1.70;;;16.10;78.80;;;;;;4857915;29;20037;-70
2022/08/12 04:53:42;;;;;;;3.85;1.63;;;16.00;79.20;;;;;;4853429;29;20033;-71
2022/08/12 04:56:09;;;;;;;4.65;2.30;;;16.00;78.90;;;;;;4856284;29;20422;-71
2022/08/12 04:58:36;;;;;;;4.40;1.88;;;16.10;79.20;;;;;;4845994;29;20116;-70
2022/08/12 05:01:02;;;;;;;7.95;2.20;;;16.10;79.10;;;;;;4852816;29;20097;-70
2022/08/12 05:03:27;;;;;;;3.58;1.95;;;16.10;79.00;;;;;;4858254;29;20480;-71
2022/08/12 05:05:56;;;;;;;3.60;2.00;;;16.10;79.00;;;;;;4857541;29;20061;-72
2022/08/12 05:08:22;;;;;;;5.50;2.40;;;16.20;78.80;;;;;;4853495;29;20077;-72
2022/08/12 05:10:49;;;;;;;5.15;2.50;;;16.30;79.00;;;;;;4852075;29;20128;-72
2022/08/12 05:13:17;;;;;;;4.55;2.40;;;16.30;78.80;;;;;;4855465;29;20034;-71
2022/08/12 05:15:44;;;;;;;3.05;1.70;;;16.40;78.90;;;;;;4854456;29;20086;-71
2022/08/12 05:18:10;;;;;;;4.80;1.90;;;16.40;78.80;;;;;;4856363;29;20061;-72
2022/08/12 05:20:37;;;;;;;6.68;2.28;;;16.40;78.90;;;;;;4850095;29;20101;-72
2022/08/12 05:23:06;;;;;;;3.20;1.98;;;16.50;78.70;;;;;;4847848;29;20089;-72
2022/08/12 05:25:32;;;;;;;4.13;2.05;;;16.60;78.50;;;;;;4852344;29;20030;-72
2022/08/12 05:27:59;;;;;;;4.07;1.92;;;16.60;78.80;;;;;;4852202;29;20520;-72
2022/08/12 05:30:29;;;;;;;4.50;2.10;;;16.70;78.70;;;;;;4854537;29;20781;-67
2022/08/12 05:32:56;;;;;;;3.63;2.03;;;16.80;78.90;;;;;;4853061;29;20081;-71
2022/08/12 05:35:22;;;;;;;3.83;1.70;;;16.80;79.00;;;;;;4851294;29;20532;-70
2022/08/12 05:37:48;;;;;;;4.57;2.50;;;16.90;78.90;;;;;;4855224;29;20478;-71
2022/08/12 05:40:13;;;;;;;5.57;2.33;;;17.00;77.80;;;;;;4845124;29;20141;-73
2022/08/12 05:42:39;;;;;;;4.43;2.25;;;17.00;78.00;;;;;;4848985;29;20228;-71
2022/08/12 05:45:06;;;;;;;5.50;2.00;;;17.10;77.70;;;;;;4856302;29;20026;-71
2022/08/12 05:47:32;;;;;;;6.07;2.53;;;17.20;77.80;;;;;;4851521;29;20532;-71
2022/08/12 05:49:58;;;;;;;5.05;1.92;;;17.40;77.00;;;;;;4851000;29;20050;-71
2022/08/12 05:52:24;;;;;;;4.55;2.40;;;17.40;77.60;;;;;;4850079;29;20423;-71
2022/08/12 05:54:50;;;;;;;5.90;2.22;;;17.50;77.90;;;;;;4856180;29;20033;-70
2022/08/12 05:57:16;;;;;;;4.50;2.10;;;17.60;76.40;;;;;;4856332;29;20064;-73
2022/08/12 05:59:42;;;;;;;5.18;2.00;;;17.80;76.00;;;;;;4854382;29;20486;-73
2022/08/12 06:02:09;;;;;;;7.40;1.92;;;17.90;76.20;;;;;;4860294;29;20044;-71
2022/08/12 06:04:35;;;;;;;8.45;2.47;;;18.00;75.50;;;;;;4856615;29;20442;-72
2022/08/12 06:07:01;;;;;;;5.03;2.10;;;18.10;75.40;;;;;;4853105;29;20054;-70
2022/08/12 06:09:29;;;;;;;8.10;2.40;;;18.30;75.10;;;;;;4856041;29;20106;-70
2022/08/12 06:11:55;;;;;;;6.15;2.05;;;18.40;74.70;;;;;;4857650;29;20110;-71
2022/08/12 06:14:21;;;;;;;3.75;1.70;;;18.50;74.90;;;;;;4855303;29;20038;-71
2022/08/12 06:16:47;;;;;;;4.57;1.90;;;18.70;73.00;;;;;;4857821;29;20268;-70
2022/08/12 06:19:14;;;;;;;3.45;1.75;;;18.80;73.30;;;;;;4849058;29;20130;-70
2022/08/12 06:21:40;;;;;;;4.95;2.00;;;19.00;71.80;;;;;;4848896;29;20033;-71
2022/08/12 06:24:07;;;;;;;7.07;1.90;;;19.10;71.70;;;;;;4852407;29;20036;-71
2022/08/12 06:26:33;;;;;;;3.55;1.63;;;19.30;69.50;;;;;;4854941;29;20381;-71
2022/08/12 06:28:59;;;;;;;5.10;1.73;;;19.50;69.70;;;;;;4853410;29;20042;-71
2022/08/12 06:31:25;;;;;;;4.10;2.05;;;19.70;69.20;;;;;;4841273;29;20026;-70
2022/08/12 06:33:52;;;;;;;3.10;1.80;;;19.70;70.00;;;;;;4850600;29;20034;-70
2022/08/12 06:36:21;;;;;;;3.10;1.73;;;19.80;70.10;;;;;;4850297;29;20081;-70
2022/08/12 06:38:47;;;;;;;3.35;1.95;;;20.00;67.70;;;;;;4851230;29;20829;-70
2022/08/12 06:43:57;;;;;;;3.05;1.63;;;20.20;68.60;;;;;;4852682;29;20117;-71
2022/08/12 06:46:24;;;;;;;3.78;1.52;;;20.30;68.40;;;;;;4856047;29;20108;-70
2022/08/12 06:48:55;;;;;;;3.58;2.17;;;20.30;68.30;;;;;;4850025;29;20046;-71
2022/08/12 06:51:21;;;;;;;;;;;20.50;65.40;;;;;;4841665;29;20033;-71
2022/08/12 06:53:47;;;;;;;3.70;1.92;;;20.60;64.70;;;;;;4858659;29;19912;-71
2022/08/12 06:56:13;;;;;;;3.50;1.67;;;20.70;64.90;;;;;;4857845;29;20033;-70
2022/08/12 06:58:39;;;;;;;5.18;1.95;;;20.90;64.00;;;;;;4859784;29;20064;-71
2022/08/12 07:01:05;;;;;;;2.42;1.50;;;21.00;65.50;;;;;;4857520;29;20485;-74
2022/08/12 07:03:31;;;;;;;4.18;1.92;;;21.00;64.20;;;;;;4853575;29;20046;-70
2022/08/12 07:06:00;;;;;;;10.43;2.03;;;21.10;62.70;;;;;;4855823;29;20186;-70
2022/08/12 07:08:28;;;;;;;4.65;1.80;;;21.20;62.60;;;;;;4857500;29;20113;-70
2022/08/12 07:11:02;;;;;;;4.45;1.95;;;21.30;62.10;;;;;;4853064;29;20470;-71
2022/08/12 07:13:42;;;;;;;4.07;2.17;;;21.50;62.00;;;;;;4855133;29;20030;-71
2022/08/12 07:16:12;;;;;;;3.58;1.80;;;21.50;63.10;;;;;;4851335;29;20030;-71
2022/08/12 07:18:39;;;;;;;5.75;2.00;;;21.70;61.40;;;;;;4858244;29;20136;-70
2022/08/12 07:21:06;;;;;;;8.52;1.98;;;21.80;61.60;;;;;;4854588;29;20042;-69
2022/08/12 07:23:34;;;;;;;4.70;1.60;;;22.00;60.90;;;;;;4859998;29;20081;-71
2022/08/12 07:26:01;;;;;;;3.63;1.88;;;22.10;61.10;;;;;;4858355;29;20048;-72
2022/08/12 07:28:29;;;;;;;5.10;2.00;;;22.20;61.70;;;;;;4858759;29;20113;-71
2022/08/12 07:30:56;;;;;;;3.03;1.88;;;22.40;58.50;;;;;;4853103;29;20044;-72
2022/08/12 07:33:26;;;;;;;3.42;1.83;;;22.50;60.20;;;;;;4858207;29;20033;-71
2022/08/12 07:35:54;;;;;;;4.88;1.80;;;22.50;57.70;;;;;;4858729;29;20030;-71
2022/08/12 07:38:32;;;;;;;5.45;1.67;;;22.70;58.00;;;;;;4859049;29;20049;-73
2022/08/12 07:41:04;;;;;;;2.83;1.60;;;22.90;56.80;;;;;;4850762;29;20034;-70
2022/08/12 07:43:31;;;;;;;3.95;1.45;;;23.10;56.70;;;;;;4856426;29;20041;-71
2022/08/12 07:45:59;;;;;;;2.83;1.58;;;23.30;57.00;;;;;;4859363;29;20029;-71
2022/08/12 07:48:25;;;;;;;3.42;1.85;;;23.40;57.70;;;;;;4852850;29;20089;-71
2022/08/12 07:50:52;;;;;;;2.80;1.92;;;23.60;55.80;;;;;;4849133;29;20033;-72
2022/08/12 07:53:17;;;;;;;10.90;1.98;;;23.80;55.90;;;;;;4858521;29;20037;-70
2022/08/12 07:55:43;;;;;;;3.83;1.85;;;23.90;55.50;;;;;;4858010;29;20025;-72
2022/08/12 07:58:09;;;;;;;3.15;1.55;;;24.00;55.30;;;;;;4857631;29;20544;-71
2022/08/12 08:00:36;;;;;;;2.63;1.65;;;24.30;54.40;;;;;;4857781;29;20037;-71
2022/08/12 08:03:02;;;;;;;4.28;1.50;;;24.40;54.70;;;;;;4857057;29;20029;-71
2022/08/12 08:05:36;;;;;;;3.85;1.63;;;24.50;53.70;;;;;;4857438;29;20037;-72
2022/08/12 08:08:11;;;;;;;4.53;1.65;;;24.80;54.70;;;;;;4858304;29;20132;-70
2022/08/12 08:10:37;;;;;;;4.00;1.88;;;24.80;51.50;;;;;;4855622;29;20152;-72
2022/08/12 08:13:04;;;;;;;2.15;1.52;;;25.00;52.80;;;;;;4859984;29;20838;-71
2022/08/12 08:15:33;;;;;;;2.25;1.60;;;25.10;51.00;;;;;;4852240;29;20065;-71
2022/08/12 08:18:02;;;;;;;3.53;1.77;;;25.30;51.60;;;;;;4855940;29;20033;-70
2022/08/12 08:20:42;;;;;;;4.05;1.65;;;25.50;52.30;;;;;;4856437;29;20056;-74
2022/08/12 08:23:12;;;;;;;3.03;1.58;;;25.60;53.00;;;;;;4851665;29;20088;-71
2022/08/12 08:25:38;;;;;;;3.05;1.67;;;25.60;49.60;;;;;;4856927;29;20102;-71
2022/08/12 08:28:18;;;;;;;9.77;1.55;;;25.90;51.60;;;;;;4851425;29;20504;-72
2022/08/12 08:30:46;;;;;;;5.05;1.70;;;26.00;51.70;;;;;;4854863;29;20462;-71
2022/08/12 08:33:14;;;;;;;2.28;1.52;;;26.20;51.50;;;;;;4857003;29;20033;-71
2022/08/12 08:35:41;;;;;;;3.15;1.70;;;26.40;51.10;;;;;;4859898;29;20295;-74
2022/08/12 08:38:16;;;;;;;5.97;1.88;;;26.40;49.40;;;;;;4855138;29;20702;-71
2022/08/12 08:43:30;;;;;;;3.55;1.70;;;26.60;47.90;;;;;;4858015;29;20033;-73
2022/08/12 08:45:56;;;;;;;4.60;1.70;;;26.80;47.60;;;;;;4850172;29;20067;-72
2022/08/12 08:48:23;;;;;;;6.75;1.52;;;26.80;48.60;;;;;;4849300;29;20030;-72
2022/08/12 08:50:49;;;;;;;8.70;2.00;;;27.00;48.20;;;;;;4850497;29;20033;-70
2022/08/12 08:53:16;;;;;;;5.57;1.48;;;27.10;43.80;;;;;;4856767;29;20033;-71
2022/08/12 08:55:42;;;;;;;2.70;1.50;;;27.20;47.20;;;;;;4852991;29;20090;-72
2022/08/12 08:58:08;;;;;;;2.65;1.45;;;27.60;45.30;;;;;;4855973;29;20504;-72
2022/08/12 09:00:37;;;;;;;3.65;1.50;;;27.90;47.90;;;;;;4848544;29;20112;-69
2022/08/12 09:03:03;;;;;;;4.30;1.58;;;27.60;44.30;;;;;;4850737;29;20394;-70
2022/08/12 09:05:29;;;;;;;3.25;1.50;;;27.90;42.70;;;;;;4854814;29;20044;-71
2022/08/12 09:07:58;;;;;;;3.70;1.50;;;28.00;44.80;;;;;;4856276;29;20401;-71
2022/08/12 09:10:23;;;;;;;2.08;1.30;;;28.30;42.00;;;;;;4853721;29;20034;-70
2022/08/12 09:15:35;;;;;;;4.72;1.40;;;28.40;40.80;;;;;;4854237;29;20500;-71
2022/08/12 09:18:01;;;;;;;2.72;1.30;;;28.50;42.30;;;;;;4856164;29;20022;-70
2022/08/12 09:20:32;;;;;;;1.92;1.17;;;28.50;41.20;;;;;;4863882;29;20033;-71
2022/08/12 09:23:00;;;;;;;5.97;1.45;;;28.80;38.40;;;;;;4860604;29;20046;-70
2022/08/12 09:25:27;;;;;;;4.00;1.40;;;28.80;39.00;;;;;;4852441;29;20037;-71
2022/08/12 09:27:54;;;;;;;4.70;1.38;;;28.90;41.60;;;;;;4853344;29;20057;-73
2022/08/12 09:30:21;;;;;;;1.48;1.20;;;29.10;39.00;;;;;;4854029;29;20045;-69
2022/08/12 09:32:50;;;;;;;5.28;1.50;;;29.20;40.10;;;;;;4856654;29;20037;-69
2022/08/12 09:35:32;;;;;;;3.80;1.67;;;29.50;40.60;;;;;;4857045;29;20128;-69
2022/08/12 09:37:59;;;;;;;8.35;1.58;;;29.50;39.40;;;;;;4853055;29;20497;-70
2022/08/12 09:40:25;;;;;;;5.07;1.70;;;29.60;39.40;;;;;;4856009;29;20094;-69
2022/08/12 09:45:35;;;;;;;3.28;1.38;;;29.90;40.00;;;;;;4855892;29;20121;-70
2022/08/12 09:48:05;;;;;;;3.45;1.55;;;30.10;39.90;;;;;;4865184;29;20034;-70
2022/08/12 09:50:32;;;;;;;3.80;1.30;;;29.90;37.10;;;;;;4856997;29;20034;-71
2022/08/12 09:53:22;;;;;;;4.38;1.50;;;30.00;37.70;;;;;;4846028;29;20129;-70
2022/08/12 09:55:51;;;;;;;2.50;1.30;;;30.00;36.40;;;;;;4849597;29;20037;-70
2022/08/12 09:58:18;;;;;;;4.22;1.50;;;30.00;36.80;;;;;;4855714;29;20033;-70
2022/08/12 10:00:45;;;;;;;3.47;1.15;;;30.20;36.50;;;;;;4862435;29;20078;-70
2022/08/12 10:03:12;;;;;;;3.60;1.20;;;30.80;37.00;;;;;;4856022;29;20033;-70
2022/08/12 10:05:43;;;;;;;3.92;1.30;;;30.40;32.60;;;;;;4856798;29;20377;-72
2022/08/12 10:08:12;;;;;;;1.95;1.33;;;30.80;36.00;;;;;;4857133;29;20057;-70
2022/08/12 10:13:41;;;;;;;2.35;1.25;;;30.90;35.80;;;;;;4853300;29;20096;-70
2022/08/12 10:16:22;;;;;;;1.92;1.10;;;31.00;36.30;;;;;;4852633;29;20174;-70
2022/08/12 10:18:49;;;;;;;5.38;1.30;;;30.90;31.30;;;;;;4856694;29;20124;-70
2022/08/12 10:21:18;;;;;;;3.35;1.20;;;30.50;31.40;;;;;;4856877;29;20474;-71
2022/08/12 10:23:45;;;;;;;1.90;1.33;;;30.90;32.70;;;;;;4856307;29;20501;-72
2022/08/12 10:31:44;;;;;;;5.93;4.20;;;30.50;34.40;;;;;;4862975;29;20028;-73
2022/08/12 10:34:12;;;;;;;7.43;3.55;;;31.30;32.80;;;;;;4859670;29;20120;-70
2022/08/12 10:36:39;;;;;;;5.15;1.67;;;31.60;32.50;;;;;;4861790;29;20117;-71
2022/08/12 10:39:16;;;;;;;3.63;1.08;;;31.60;32.10;;;;;;4861329;29;20049;-71
2022/08/12 10:44:28;;;;;;;1.35;1.20;;;31.20;31.80;;;;;;4854212;29;20044;-70
2022/08/12 10:46:54;;;;;;;5.82;1.10;;;31.20;32.40;;;;;;4858806;29;20029;-71
2022/08/12 10:49:27;;;;;;;2.70;1.20;;;31.80;32.80;;;;;;4857968;29;20102;-70
2022/08/12 10:51:56;;;;;;;1.10;0.90;;;31.50;31.20;;;;;;4859085;29;20057;-74
2022/08/12 10:54:26;;;;;;;2.67;1.50;;;32.20;31.60;;;;;;4855430;29;20670;-72
2022/08/12 10:56:52;;;;;;;3.45;1.35;;;32.80;32.00;;;;;;4850061;29;20469;-73
2022/08/12 10:59:20;;;;;;;6.20;1.42;;;32.40;32.10;;;;;;4857446;29;20058;-71
2022/08/12 11:01:47;;;;;;;4.25;1.50;;;31.90;30.40;;;;;;4857945;29;20037;-71
2022/08/12 11:04:12;;;;;;;2.63;1.40;;;32.50;31.70;;;;;;4860022;29;20033;-71
2022/08/12 11:06:49;;;;;;;3.00;1.10;;;33.00;30.20;;;;;;4854794;29;20062;-70
2022/08/12 11:09:34;;;;;;;5.38;1.42;;;33.00;31.00;;;;;;4862166;29;20060;-71
2022/08/12 11:12:05;;;;;;;2.15;1.20;;;33.20;29.50;;;;;;4855410;29;20081;-73
2022/08/12 11:14:36;;;;;;;3.88;1.05;;;32.90;28.70;;;;;;4853614;29;20036;-71
2022/08/12 11:17:06;;;;;;;3.15;1.35;;;33.30;29.60;;;;;;4853093;29;20072;-71
2022/08/12 11:19:33;;;;;;;2.15;1.10;;;32.70;28.90;;;;;;4852092;29;20025;-71
2022/08/12 11:21:58;;;;;;;2.65;1.33;;;33.20;28.80;;;;;;4854158;29;20367;-71
2022/08/12 11:24:25;;;;;;;2.35;1.33;;;33.40;27.90;;;;;;4857889;29;20053;-71
2022/08/12 11:26:52;;;;;;;2.47;1.20;;;33.20;28.50;;;;;;4856184;29;20042;-73
2022/08/12 11:29:25;;;;;;;5.13;1.17;;;33.00;27.40;;;;;;4854898;29;20136;-71
2022/08/12 11:31:51;;;;;;;1.27;0.98;;;33.30;27.80;;;;;;4857190;29;20037;-74
2022/08/12 11:34:17;;;;;;;3.30;1.23;;;33.20;29.00;;;;;;4853578;29;20141;-71
2022/08/12 11:36:52;;;;;;;4.38;1.42;;;33.70;27.30;;;;;;4848517;29;20469;-72
2022/08/12 11:39:18;;;;;;;3.15;1.20;;;33.60;28.30;;;;;;4852304;29;20097;-71
2022/08/12 11:41:44;;;;;;;2.33;1.23;;;33.90;26.30;;;;;;4863546;29;20378;-74
2022/08/12 11:44:09;;;;;;;8.43;2.30;;;34.20;28.30;;;;;;4852292;29;20046;-73
2022/08/12 11:46:36;;;;;;;4.45;1.15;;;34.70;27.60;;;;;;4851197;29;20057;-71
2022/08/12 11:49:02;;;;;;;2.53;1.30;;;34.80;26.60;;;;;;4857516;29;20056;-71
2022/08/12 11:51:28;;;;;;;2.90;1.00;;;34.90;24.90;;;;;;4854876;29;20041;-71
2022/08/12 11:53:54;;;;;;;2.70;1.23;;;34.70;27.40;;;;;;4848148;29;20030;-71
2022/08/12 11:56:19;;;;;;;2.25;1.35;;;34.50;25.20;;;;;;4855914;29;20041;-75
2022/08/12 11:58:45;;;;;;;2.15;1.00;;;34.70;24.90;;;;;;4848828;29;20515;-71
2022/08/12 12:01:10;;;;;;;4.63;1.40;;;34.50;25.90;;;;;;4849656;29;20135;-71
2022/08/12 12:03:36;;;;;;;2.22;1.10;;;34.50;25.70;;;;;;4840474;29;20378;-73
2022/08/12 12:06:01;;;;;;;6.53;1.40;;;34.90;25.40;;;;;;4854894;29;20069;-70
2022/08/12 12:08:28;;;;;;;2.72;1.23;;;35.50;24.40;;;;;;4857186;29;20043;-71
2022/08/12 12:10:54;;;;;;;2.78;1.10;;;35.30;24.30;;;;;;4863859;29;20374;-71
2022/08/12 12:13:20;;;;;;;5.10;1.02;;;35.50;24.10;;;;;;4858718;29;20029;-71
2022/08/12 12:15:46;;;;;;;2.90;0.95;;;35.20;26.50;;;;;;4856749;29;20100;-74
2022/08/12 12:18:26;;;;;;;2.75;1.17;;;35.50;23.60;;;;;;4850955;29;20038;-70
2022/08/12 12:20:54;;;;;;;1.65;1.10;;;35.10;24.60;;;;;;4850276;29;20041;-72
2022/08/12 12:23:20;;;;;;;3.00;1.30;;;35.50;24.40;;;;;;4844787;29;20045;-71
2022/08/12 12:25:45;;;;;;;4.32;1.00;;;36.20;25.30;;;;;;4845585;29;20438;-73
2022/08/12 12:28:12;;;;;;;2.53;1.20;;;36.10;21.50;;;;;;4848591;29;20034;-71
2022/08/12 12:30:38;;;;;;;3.25;1.20;;;36.20;22.10;;;;;;4854882;29;20034;-71
2022/08/12 12:33:05;;;;;;;3.38;1.10;;;35.30;22.10;;;;;;4849350;29;20481;-71
2022/08/12 12:35:31;;;;;;;1.73;1.00;;;34.80;23.60;;;;;;4850189;29;20033;-72
2022/08/12 12:38:02;;;;;;;5.25;1.27;;;35.50;24.10;;;;;;4856307;29;20536;-71
2022/08/12 12:40:29;;;;;;;2.55;1.20;;;36.20;24.30;;;;;;4856589;29;20041;-71
2022/08/12 12:42:54;;;;;;;3.60;1.00;;;36.20;25.40;;;;;;4858479;29;20041;-72
2022/08/12 12:45:20;;;;;;;2.42;0.93;;;35.70;21.70;;;;;;4857675;29;20049;-71
2022/08/12 12:47:59;;;;;;;3.45;1.00;;;36.40;23.70;;;;;;4849957;29;20152;-72
2022/08/12 12:50:28;;;;;;;3.28;1.20;;;36.70;22.60;;;;;;4852964;29;20057;-71
2022/08/12 12:52:53;;;;;;;2.10;1.20;;;37.10;20.90;;;;;;4851576;29;20115;-71
2022/08/12 12:55:20;;;;;;;1.30;0.88;;;37.30;21.60;;;;;;4854748;29;20025;-71
2022/08/12 12:57:47;;;;;;;1.83;1.00;;;36.50;22.70;;;;;;4852420;29;20603;-73
2022/08/12 13:00:13;;;;;;;4.22;1.70;;;36.80;21.10;;;;;;4832089;29;20398;-72
2022/08/12 13:02:55;;;;;;;2.20;1.10;;;36.70;23.60;;;;;;4841417;29;20120;-73
2022/08/12 13:05:27;;;;;;;1.77;0.93;;;37.60;22.30;;;;;;4835169;29;20026;-73
2022/08/12 13:07:53;;;;;;;3.28;1.42;;;37.50;21.80;;;;;;4849030;29;20098;-74
2022/08/12 13:10:20;;;;;;;2.88;1.08;;;37.80;20.60;;;;;;4851256;29;20549;-73
2022/08/12 13:12:46;;;;;;;3.30;0.88;;;37.40;20.80;;;;;;4857538;29;20082;-72
2022/08/12 13:15:14;;;;;;;5.63;1.10;;;37.40;20.50;;;;;;4855410;29;20171;-73
2022/08/12 13:17:50;;;;;;;1.40;0.85;;;36.60;23.00;;;;;;4848908;29;20158;-73
2022/08/12 13:20:17;;;;;;;1.58;0.90;;;37.70;21.50;;;;;;4856561;29;20052;-74
2022/08/12 13:22:44;;;;;;;2.55;1.00;;;37.40;21.20;;;;;;4858280;29;20037;-73
2022/08/12 13:25:10;;;;;;;3.38;1.13;;;37.30;20.40;;;;;;4857079;29;20081;-73
2022/08/12 13:27:40;;;;;;;2.08;1.00;;;38.00;23.70;;;;;;4856864;29;20450;-73
2022/08/12 13:30:09;;;;;;;3.28;1.15;;;38.40;22.50;;;;;;4855881;29;20037;-73
2022/08/12 13:32:36;;;;;;;2.22;1.02;;;38.20;23.00;;;;;;4857868;29;20025;-74
2022/08/12 13:35:02;;;;;;;2.35;1.00;;;38.50;22.40;;;;;;4869037;29;20044;-73
2022/08/12 13:37:27;;;;;;;3.40;1.40;;;38.70;21.20;;;;;;4858289;29;20520;-72
2022/08/12 13:39:53;;;;;;;1.95;1.17;;;38.10;21.30;;;;;;4857277;29;20061;-72
2022/08/12 13:42:21;;;;;;;3.45;1.20;;;38.30;21.50;;;;;;4857840;29;20045;-72
2022/08/12 13:44:51;;;;;;;4.80;1.08;;;37.90;21.10;;;;;;4856031;29;20094;-73
2022/08/12 13:47:18;;;;;;;8.65;1.45;;;38.50;22.00;;;;;;4857823;29;20033;-72
2022/08/12 13:49:45;;;;;;;2.53;1.20;;;37.40;21.00;;;;;;4856756;29;20055;-72
2022/08/12 13:52:11;;;;;;;3.85;1.10;;;38.20;22.00;;;;;;4857092;29;20081;-72
2022/08/12 13:54:36;;;;;;;0.73;0.73;;;38.10;20.90;;;;;;4852946;29;20467;-72
2022/08/12 13:57:02;;;;;;;2.75;0.93;;;38.00;20.00;;;;;;4848796;29;20113;-73
2022/08/12 13:59:28;;;;;;;1.38;0.98;;;38.60;21.30;;;;;;4857775;29;20037;-73
2022/08/12 14:01:54;;;;;;;2.88;1.10;;;38.80;21.40;;;;;;4860762;29;20104;-74
2022/08/12 14:04:19;;;;;;;5.35;1.20;;;38.80;20.40;;;;;;4859971;29;20130;-73
2022/08/12 14:06:49;;;;;;;1.95;0.80;;;38.90;19.30;;;;;;4857184;29;20552;-73
2022/08/12 14:09:15;;;;;;;3.42;1.25;;;37.50;20.20;;;;;;4857717;29;20030;-72
2022/08/12 14:11:41;;;;;;;4.60;1.30;;;38.30;21.20;;;;;;4843747;29;20033;-73
2022/08/12 14:14:08;;;;;;;2.95;1.30;;;37.00;19.90;;;;;;4859447;29;20036;-72
2022/08/12 14:16:34;;;;;;;3.65;1.45;;;36.90;20.80;;;;;;4860313;29;20061;-72
2022/08/12 14:18:59;;;;;;;0.80;0.80;;;37.60;21.10;;;;;;4857223;29;20096;-71
2022/08/12 14:21:27;;;;;;;2.92;1.05;;;38.10;21.30;;;;;;4854290;29;20065;-71
2022/08/12 14:23:53;;;;;;;4.10;0.80;;;37.50;20.70;;;;;;4853382;29;20128;-73
2022/08/12 14:26:25;;;;;;;2.72;1.20;;;37.90;20.70;;;;;;4859225;29;20532;-72
2022/08/12 14:28:54;;;;;;;3.33;1.00;;;38.10;20.30;;;;;;4854895;29;20038;-72
2022/08/12 14:31:20;;;;;;;3.10;1.00;;;38.40;20.40;;;;;;4853618;29;20462;-71
2022/08/12 14:33:48;;;;;;;2.15;1.00;;;38.90;19.00;;;;;;4856053;29;20109;-72
2022/08/12 14:36:19;;;;;;;6.18;1.10;;;39.10;19.30;;;;;;4861729;29;20379;-73
2022/08/12 14:38:45;;;;;;;2.92;1.00;;;39.50;19.40;;;;;;4854606;29;20041;-74